Time;durP1;ratioP1;P1;durP2;ratioP2;P2;SDS_P1;SDS_P2;PMS_P1;PMS_P2;Temp;Humidity;BMP_temperature;BMP_pressure;BME280_temperature;BME280_humidity;BME280_pressure;Samples;Min_cycle;Max_cycle;Signal;HPM_P1;HPM_P2
2023/07/23 00:01:27;;;;;;;0.60;0.60;;;;;;;30.33;67.60;99135.69;5112282;28;20251;-66
2023/07/23 00:03:54;;;;;;;0.80;0.80;;;;;;;30.30;68.35;99150.09;5112365;28;20685;-67
2023/07/23 00:06:21;;;;;;;0.90;0.90;;;;;;;30.29;68.14;99158.19;5112446;28;20202;-66
2023/07/23 00:08:48;;;;;;;2.42;0.93;;;;;;;30.26;68.78;99147.97;5112312;28;20206;-66
2023/07/23 00:11:16;;;;;;;2.83;0.77;;;;;;;30.25;68.48;99147.13;5111871;28;20225;-66
2023/07/23 00:13:42;;;;;;;6.22;0.77;;;;;;;30.24;69.04;99140.22;5112262;28;20622;-66
2023/07/23 00:16:09;;;;;;;3.25;0.77;;;;;;;30.25;68.79;99149.78;5112022;28;20210;-67
2023/07/23 00:18:36;;;;;;;0.80;0.80;;;;;;;30.23;69.10;99143.84;5112080;28;20194;-67
2023/07/23 00:21:03;;;;;;;0.70;0.70;;;;;;;30.21;69.48;99145.88;5112590;28;20202;-67
2023/07/23 00:23:30;;;;;;;0.93;0.93;;;;;;;30.17;69.81;99155.16;5111990;28;20694;-66
2023/07/23 00:25:57;;;;;;;0.73;0.73;;;;;;;30.01;69.52;99129.66;5112032;28;20199;-66
2023/07/23 00:28:25;;;;;;;0.68;0.68;;;;;;;30.04;70.65;99155.72;5111468;28;20222;-66
2023/07/23 00:30:52;;;;;;;1.38;1.00;;;;;;;30.00;70.96;99156.25;5112220;28;20225;-67
2023/07/23 00:33:20;;;;;;;2.55;1.42;;;;;;;30.00;71.52;99162.38;5111946;28;20206;-66
2023/07/23 00:35:47;;;;;;;0.80;0.80;;;;;;;29.97;71.93;99160.06;5111871;28;20195;-67
2023/07/23 00:38:14;;;;;;;0.90;0.80;;;;;;;29.91;71.76;99166.06;5112325;28;20198;-67
2023/07/23 00:40:41;;;;;;;0.75;0.75;;;;;;;29.86;71.91;99173.69;5110987;28;20191;-67
2023/07/23 00:43:07;;;;;;;0.85;0.85;;;;;;;29.86;72.52;99184.25;5111495;28;20468;-67
2023/07/23 00:45:36;;;;;;;1.85;0.88;;;;;;;29.80;72.69;99184.91;5111150;28;20199;-67
2023/07/23 00:48:02;;;;;;;4.68;0.93;;;;;;;29.80;72.79;99184.91;5111913;28;20198;-67
2023/07/23 00:50:30;;;;;;;1.30;1.13;;;;;;;29.74;73.34;99185.63;5111715;28;20279;-67
2023/07/23 00:52:57;;;;;;;5.97;0.70;;;;;;;29.60;73.19;99183.69;5111449;28;20237;-67
2023/07/23 00:55:24;;;;;;;0.70;0.50;;;;;;;29.66;73.33;99193.59;5111725;28;20209;-67
2023/07/23 00:57:51;;;;;;;0.50;0.50;;;;;;;29.65;73.73;99202.50;5110921;28;20202;-67
2023/07/23 01:00:18;;;;;;;0.80;0.80;;;;;;;29.01;73.46;99096.13;5111412;28;20256;-67
2023/07/23 01:02:46;;;;;;;1.05;0.80;;;;;;;29.55;74.33;99205.38;5111129;28;20228;-66
2023/07/23 01:05:12;;;;;;;0.90;0.90;;;;;;;29.51;74.05;99211.16;5111526;28;20198;-67
2023/07/23 01:07:41;;;;;;;0.82;0.82;;;;;;;29.44;74.46;99205.72;5111516;28;20226;-67
2023/07/23 01:10:09;;;;;;;0.70;0.70;;;;;;;29.39;75.30;99204.59;5111729;28;20214;-66
2023/07/23 01:12:37;;;;;;;1.10;1.10;;;;;;;29.31;75.49;99209.88;5111430;28;20669;-67
2023/07/23 01:15:06;;;;;;;0.80;0.80;;;;;;;29.31;75.41;99204.59;5110629;28;20191;-67
2023/07/23 01:17:33;;;;;;;1.13;1.13;;;;;;;29.31;75.38;99199.31;5109556;28;20289;-67
2023/07/23 01:20:05;;;;;;;1.08;0.93;;;;;;;29.28;75.89;99197.84;5110043;28;20194;-67
2023/07/23 01:22:35;;;;;;;0.67;0.67;;;;;;;29.26;76.25;99199.84;5111076;28;20217;-66
2023/07/23 01:25:03;;;;;;;0.70;0.70;;;;;;;29.27;75.19;99195.41;5110843;28;20199;-67
2023/07/23 01:27:29;;;;;;;0.80;0.80;;;;;;;29.16;75.92;99181.53;5111028;28;20223;-67
2023/07/23 01:29:56;;;;;;;1.10;1.10;;;;;;;29.24;75.63;99203.63;5110610;28;20633;-67
2023/07/23 01:32:23;;;;;;;0.70;0.70;;;;;;;29.18;76.45;99210.41;5108150;28;20198;-66
2023/07/23 01:34:51;;;;;;;0.88;0.60;;;;;;;29.14;77.01;99209.09;5111263;28;20214;-66
2023/07/23 01:37:18;;;;;;;1.10;1.10;;;;;;;29.15;76.77;99216.84;5111120;28;20205;-66
2023/07/23 01:39:50;;;;;;;0.77;0.77;;;;;;;29.08;76.81;99215.06;5110985;28;20667;-67
2023/07/23 01:42:17;;;;;;;1.43;0.90;;;;;;;29.11;76.90;99233.19;5110752;28;20190;-67
2023/07/23 01:44:44;;;;;;;1.03;1.00;;;;;;;29.08;77.26;99229.06;5110925;28;20202;-67
2023/07/23 01:47:11;;;;;;;0.73;0.73;;;;;;;29.07;77.00;99219.50;5110528;28;20202;-66
2023/07/23 01:49:38;;;;;;;0.53;0.53;;;;;;;29.02;77.35;99221.81;5110421;28;20210;-67
2023/07/23 01:52:05;;;;;;;0.73;0.73;;;;;;;28.93;76.88;99214.06;5113681;28;20198;-67
2023/07/23 01:54:32;;;;;;;0.97;0.90;;;;;;;28.97;77.66;99232.06;5114709;28;20251;-67
2023/07/23 01:57:00;;;;;;;2.63;1.00;;;;;;;28.95;77.53;99228.75;5115135;28;20578;-67
2023/07/23 01:59:27;;;;;;;0.70;0.70;;;;;;;28.84;76.89;99207.16;5114722;28;20191;-66
2023/07/23 02:01:53;;;;;;;0.80;0.80;;;;;;;28.94;77.56;99232.41;5114609;28;20213;-67
2023/07/23 02:04:20;;;;;;;1.45;0.90;;;;;;;28.87;77.20;99223.50;5114745;28;20201;-67
2023/07/23 02:06:47;;;;;;;0.70;0.63;;;;;;;28.91;77.26;99232.75;5114568;28;20210;-67
2023/07/23 02:09:14;;;;;;;1.38;0.70;;;;;;;28.86;77.13;99221.84;5112492;28;20202;-67
2023/07/23 02:11:40;;;;;;;1.17;1.07;;;;;;;28.83;77.87;99219.53;5113718;28;20657;-66
2023/07/23 02:14:09;;;;;;;0.60;0.60;;;;;;;28.66;77.94;99212.63;5114370;28;20706;-66
2023/07/23 02:16:36;;;;;;;2.07;1.13;;;;;;;28.67;77.96;99222.19;5114559;28;20287;-67
2023/07/23 02:19:03;;;;;;;0.93;0.60;;;;;;;28.56;78.91;99225.13;5114187;28;20202;-66
2023/07/23 02:21:30;;;;;;;1.20;1.00;;;;;;;28.40;80.49;99228.56;5114525;28;20202;-67
2023/07/23 02:23:57;;;;;;;1.67;1.10;;;;;;;28.19;81.14;99227.38;5114525;28;20681;-66
2023/07/23 02:26:23;;;;;;;5.40;1.00;;;;;;;27.88;82.55;99219.22;5114599;28;20564;-66
2023/07/23 02:28:50;;;;;;;0.70;0.70;;;;;;;27.91;82.61;99248.72;5114261;28;20222;-66
2023/07/23 02:31:18;;;;;;;3.57;1.07;;;;;;;27.85;82.64;99238.78;5114455;28;20217;-67
2023/07/23 02:33:45;;;;;;;1.53;1.43;;;;;;;27.67;82.84;99230.19;5114172;28;20199;-66
2023/07/23 02:36:12;;;;;;;0.70;0.70;;;;;;;27.65;82.27;99234.78;5114001;28;20575;-67
2023/07/23 02:38:38;;;;;;;2.10;0.80;;;;;;;27.75;82.35;99261.84;5114172;28;20198;-66
2023/07/23 02:41:05;;;;;;;6.33;1.00;;;;;;;27.71;82.19;99260.50;5114015;28;20674;-66
2023/07/23 02:43:32;;;;;;;1.47;1.00;;;;;;;27.63;82.17;99268.34;5113915;28;20195;-67
2023/07/23 02:45:59;;;;;;;1.00;0.97;;;;;;;27.58;82.24;99266.19;5113882;28;20206;-67
2023/07/23 02:48:27;;;;;;;0.80;0.80;;;;;;;27.50;82.35;99270.59;5114012;28;20191;-66
2023/07/23 02:50:54;;;;;;;2.03;0.97;;;;;;;27.33;81.09;99266.19;5113855;28;20314;-66
2023/07/23 02:53:21;;;;;;;1.10;1.10;;;;;;;27.12;80.57;99251.59;5113704;28;20204;-67
2023/07/23 02:55:47;;;;;;;0.83;0.70;;;;;;;27.20;79.63;99277.16;5113980;28;20226;-66
2023/07/23 02:58:14;;;;;;;1.03;1.03;;;;;;;27.26;79.21;99276.53;5113999;28;20255;-66
2023/07/23 03:00:41;;;;;;;1.57;0.90;;;;;;;27.31;79.68;99279.50;5113620;28;20206;-66
2023/07/23 03:03:08;;;;;;;1.30;1.20;;;;;;;27.38;79.20;99280.53;5112828;28;20673;-67
2023/07/23 03:05:37;;;;;;;0.90;0.70;;;;;;;27.45;79.57;99275.50;5113816;28;20551;-66
2023/07/23 03:08:05;;;;;;;1.43;1.20;;;;;;;27.54;79.16;99280.66;5113592;28;20190;-66
2023/07/23 03:10:32;;;;;;;0.93;0.93;;;;;;;27.65;78.69;99287.47;5112874;28;20215;-67
2023/07/23 03:12:58;;;;;;;1.43;1.33;;;;;;;27.73;78.64;99290.13;5113169;28;20195;-67
2023/07/23 03:15:25;;;;;;;0.77;0.77;;;;;;;27.80;77.13;99301.69;5113549;28;20194;-67
2023/07/23 03:17:52;;;;;;;4.43;1.00;;;;;;;27.86;77.13;99289.69;5113291;28;20209;-67
2023/07/23 03:20:19;;;;;;;1.07;1.00;;;;;;;27.88;77.11;99296.47;5112189;28;20195;-66
2023/07/23 03:22:48;;;;;;;1.57;0.80;;;;;;;27.92;76.94;99310.97;5112888;28;20681;-67
2023/07/23 03:25:16;;;;;;;0.80;0.80;;;;;;;27.89;76.99;99308.63;5112411;28;20199;-67
2023/07/23 03:27:43;;;;;;;0.83;0.83;;;;;;;27.93;76.37;99302.06;5113174;28;20230;-67
2023/07/23 03:30:11;;;;;;;0.87;0.87;;;;;;;27.92;76.69;99321.50;5113040;28;20252;-67
2023/07/23 03:32:38;;;;;;;1.00;0.60;;;;;;;28.00;76.62;99334.72;5112735;28;20194;-67
2023/07/23 03:35:06;;;;;;;0.97;0.90;;;;;;;28.00;76.07;99333.91;5113328;28;20199;-67
2023/07/23 03:37:32;;;;;;;0.90;0.90;;;;;;;28.00;75.84;99334.72;5113092;28;20206;-67
2023/07/23 03:40:01;;;;;;;1.03;0.90;;;;;;;27.96;75.85;99330.75;5112688;28;20206;-67
2023/07/23 03:42:27;;;;;;;1.63;1.00;;;;;;;28.06;76.32;99349.94;5109719;28;20655;-67
2023/07/23 03:44:54;;;;;;;2.10;0.87;;;;;;;28.06;75.66;99352.56;5112703;28;20252;-67
2023/07/23 03:47:21;;;;;;;1.07;1.03;;;;;;;28.10;76.44;99353.91;5112674;28;20195;-67
2023/07/23 03:49:48;;;;;;;0.90;0.90;;;;;;;28.17;76.00;99350.63;5112738;28;20202;-67
2023/07/23 03:52:15;;;;;;;0.80;0.80;;;;;;;28.21;76.05;99358.06;5112374;28;20690;-66
2023/07/23 03:54:42;;;;;;;0.93;0.93;;;;;;;28.25;76.49;99359.38;5112638;28;20198;-67
2023/07/23 03:57:10;;;;;;;0.80;0.80;;;;;;;28.30;75.62;99357.13;5112626;28;20202;-66
2023/07/23 03:59:38;;;;;;;1.17;1.07;;;;;;;28.36;74.99;99364.38;5112362;28;20199;-67
2023/07/23 04:02:06;;;;;;;0.80;0.80;;;;;;;28.42;75.11;99360.28;5112726;28;20198;-67
2023/07/23 04:04:33;;;;;;;1.63;0.93;;;;;;;28.43;74.49;99368.03;5112357;28;20202;-67
2023/07/23 04:07:00;;;;;;;2.60;1.00;;;;;;;28.48;73.77;99364.91;5112777;28;20582;-67
2023/07/23 04:09:27;;;;;;;1.83;1.00;;;;;;;28.45;72.93;99357.31;5112019;28;20201;-66
2023/07/23 04:11:54;;;;;;;2.63;0.77;;;;;;;28.51;73.08;99369.84;5112285;28;20222;-67
2023/07/23 04:14:22;;;;;;;0.80;0.80;;;;;;;28.50;73.14;99347.09;5112245;28;20235;-66
2023/07/23 04:16:50;;;;;;;0.73;0.73;;;;;;;28.59;70.91;99373.34;5111049;28;20190;-67
2023/07/23 04:19:17;;;;;;;0.70;0.70;;;;;;;28.65;71.98;99378.03;5112150;28;20202;-67
2023/07/23 04:21:44;;;;;;;0.77;0.77;;;;;;;28.70;71.61;99372.25;5111974;28;20201;-67
2023/07/23 04:24:10;;;;;;;5.47;1.40;;;;;;;28.88;71.29;99390.59;5111806;28;20239;-66
2023/07/23 04:26:37;;;;;;;1.03;0.97;;;;;;;28.99;69.50;99396.38;5111749;28;20267;-66
2023/07/23 04:29:04;;;;;;;1.00;1.00;;;;;;;29.13;69.29;99390.44;5111831;28;20222;-67
2023/07/23 04:31:32;;;;;;;2.67;1.57;;;;;;;29.26;68.54;99391.78;5111774;28;20279;-67
2023/07/23 04:33:59;;;;;;;1.02;1.02;;;;;;;29.43;68.95;99393.44;5111940;28;20201;-66
2023/07/23 04:36:26;;;;;;;7.15;0.82;;;;;;;29.50;66.74;99383.88;5112036;28;20629;-67
2023/07/23 04:38:53;;;;;;;0.98;0.98;;;;;;;29.73;66.16;99403.28;5111492;28;20198;-67
2023/07/23 04:41:19;;;;;;;0.90;0.90;;;;;;;29.88;65.08;99401.66;5111535;28;20255;-66
2023/07/23 04:43:46;;;;;;;1.77;0.68;;;;;;;30.01;66.24;99399.31;5111062;28;20205;-67
2023/07/23 04:46:13;;;;;;;1.10;1.10;;;;;;;30.15;66.25;99401.22;5111420;28;20195;-67
2023/07/23 04:48:42;;;;;;;0.80;0.80;;;;;;;30.20;64.42;99398.91;5111281;28;20708;-67
2023/07/23 04:51:10;;;;;;;1.63;0.77;;;;;;;30.20;65.21;99400.72;5111182;28;20623;-67
2023/07/23 04:53:36;;;;;;;1.70;1.10;;;;;;;30.18;65.08;99390.31;5111418;28;20199;-66
2023/07/23 04:56:05;;;;;;;1.15;1.10;;;;;;;30.26;65.80;99401.84;5111240;28;20206;-66
2023/07/23 04:58:32;;;;;;;0.90;0.85;;;;;;;30.25;67.40;99393.09;5111668;28;20201;-66
2023/07/23 05:01:05;;;;;;;4.47;1.17;;;;;;;30.43;65.86;99403.47;5111646;28;20206;-66
2023/07/23 05:03:32;;;;;;;3.60;0.90;;;;;;;30.57;64.65;99413.31;5110759;28;20845;-66
2023/07/23 05:06:02;;;;;;;2.80;1.10;;;;;;;30.82;65.71;99420.13;5108308;28;20438;-65
2023/07/23 05:08:29;;;;;;;1.02;0.88;;;;;;;31.07;65.13;99413.72;5110806;28;20211;-65
2023/07/23 05:11:00;;;;;;;3.03;1.20;;;;;;;31.28;63.72;99410.38;5109682;28;20218;-66
2023/07/23 05:13:27;;;;;;;3.13;1.17;;;;;;;31.27;64.51;99416.72;5110680;28;20222;-65
2023/07/23 05:15:53;;;;;;;2.90;1.27;;;;;;;31.45;65.21;99411.06;5111378;28;20221;-65
2023/07/23 05:18:20;;;;;;;1.05;0.65;;;;;;;31.67;65.82;99415.53;5111237;28;20255;-65
2023/07/23 05:20:47;;;;;;;1.80;1.70;;;;;;;31.83;65.55;99420.66;5110886;28;20241;-66
2023/07/23 05:23:15;;;;;;;0.80;0.80;;;;;;;32.03;64.76;99421.78;5111099;28;20205;-65
2023/07/23 05:25:42;;;;;;;0.82;0.80;;;;;;;32.28;63.82;99419.69;5110485;28;20199;-66
2023/07/23 05:28:09;;;;;;;0.85;0.85;;;;;;;32.22;61.05;99418.63;5110596;28;20244;-69
2023/07/23 05:30:36;;;;;;;7.43;1.08;;;;;;;32.13;62.51;99416.25;5110949;28;20195;-70
2023/07/23 05:33:03;;;;;;;0.65;0.65;;;;;;;32.01;60.34;99417.69;5110259;28;20190;-66
2023/07/23 05:35:29;;;;;;;1.27;0.77;;;;;;;31.73;61.46;99417.47;5110485;28;20191;-65
2023/07/23 05:37:56;;;;;;;0.90;0.90;;;;;;;31.74;62.44;99416.47;5107279;28;20625;-66
2023/07/23 05:40:24;;;;;;;0.82;0.82;;;;;;;31.81;61.16;99416.56;5109700;28;20816;-66
2023/07/23 05:42:56;;;;;;;0.90;0.90;;;;;;;31.81;59.84;99417.38;5109458;28;20264;-66
2023/07/23 05:45:23;;;;;;;0.70;0.70;;;;;;;31.92;60.84;99411.66;5109312;28;20230;-66
2023/07/23 05:47:49;;;;;;;9.18;1.05;;;;;;;31.85;60.18;99408.06;5109289;28;20203;-66
2023/07/23 05:50:16;;;;;;;4.25;0.70;;;;;;;31.78;59.51;99401.84;5109377;28;20204;-66
2023/07/23 05:52:43;;;;;;;0.68;0.68;;;;;;;31.87;59.64;99410.53;5108628;28;20225;-66
2023/07/23 05:55:10;;;;;;;1.95;0.65;;;;;;;32.11;57.31;99405.81;5107298;28;20293;-66
2023/07/23 05:57:38;;;;;;;1.95;0.60;;;;;;;32.20;56.88;99402.06;5109138;28;20720;-65
2023/07/23 06:00:06;;;;;;;3.00;1.55;;;;;;;32.39;57.48;99405.16;5109501;28;20202;-65
2023/07/23 06:02:33;;;;;;;2.25;2.00;;;;;;;32.49;56.64;99400.38;5106972;28;20445;-67
2023/07/23 06:04:59;;;;;;;4.50;1.10;;;;;;;32.60;57.28;99399.94;5109519;28;20202;-67
2023/07/23 06:07:26;;;;;;;1.42;1.00;;;;;;;32.41;55.90;99392.53;5109006;28;20199;-66
2023/07/23 06:09:54;;;;;;;0.95;0.88;;;;;;;32.48;57.64;99393.41;5110051;28;20690;-66
2023/07/23 06:12:21;;;;;;;1.10;1.10;;;;;;;32.63;54.36;99386.28;5109995;28;20254;-66
2023/07/23 06:14:49;;;;;;;0.60;0.60;;;;;;;32.40;53.83;99390.88;5109852;28;20640;-66
2023/07/23 06:17:15;;;;;;;3.63;0.95;;;;;;;32.20;54.23;99386.16;5109742;28;20199;-66
2023/07/23 06:19:42;;;;;;;1.10;0.93;;;;;;;32.34;54.35;99381.00;5109815;28;20210;-67
2023/07/23 06:22:09;;;;;;;3.75;0.85;;;;;;;32.46;54.66;99385.66;5108213;28;20198;-67
2023/07/23 06:24:36;;;;;;;9.27;3.13;;;;;;;32.60;55.07;99381.34;5108483;28;20271;-67
2023/07/23 06:27:03;;;;;;;7.45;1.27;;;;;;;32.55;54.32;99389.00;5109008;28;20202;-65
2023/07/23 06:29:30;;;;;;;4.50;3.47;;;;;;;32.69;58.01;99377.56;5109473;28;20226;-64
2023/07/23 06:31:58;;;;;;;3.22;1.90;;;;;;;33.00;56.45;99382.56;5108756;28;22355;-64
2023/07/23 06:34:25;;;;;;;2.25;1.23;;;;;;;33.50;56.25;99400.19;5108132;28;20215;-63
2023/07/23 06:36:52;;;;;;;2.58;0.60;;;;;;;33.74;52.85;99397.13;5108071;28;20215;-63
2023/07/23 06:39:20;;;;;;;1.63;1.15;;;;;;;33.87;50.91;99394.53;5108320;28;20206;-64
2023/07/23 06:41:47;;;;;;;0.77;0.77;;;;;;;34.07;50.92;99400.81;5112477;27;20203;-63
2023/07/23 06:44:14;;;;;;;1.77;0.75;;;;;;;34.23;50.34;99392.53;5113819;28;20198;-64
2023/07/23 06:46:41;;;;;;;0.63;0.60;;;;;;;34.40;50.97;99387.69;5113140;28;20191;-64
2023/07/23 06:49:12;;;;;;;1.75;1.00;;;;;;;34.51;49.73;99396.94;5113638;28;20190;-65
2023/07/23 06:51:38;;;;;;;1.83;1.73;;;;;;;34.32;49.89;99381.69;5112738;28;20214;-62
2023/07/23 06:54:05;;;;;;;0.80;0.80;;;;;;;34.36;47.98;99390.94;5113133;28;20195;-62
2023/07/23 06:56:32;;;;;;;1.35;1.00;;;;;;;34.42;47.18;99385.63;5112447;28;20427;-63
2023/07/23 06:58:59;;;;;;;1.75;1.08;;;;;;;34.66;46.81;99385.13;5112773;28;20207;-63
2023/07/23 07:01:26;;;;;;;0.82;0.82;;;;;;;34.93;47.01;99383.31;5113244;28;20205;-68
2023/07/23 07:03:53;;;;;;;1.00;1.00;;;;;;;34.91;43.84;99381.88;5113528;28;20203;-69
2023/07/23 07:06:21;;;;;;;1.55;0.88;;;;;;;34.83;44.13;99377.59;5113140;28;20581;-66
2023/07/23 07:08:48;;;;;;;2.42;0.80;;;;;;;34.93;44.26;99383.31;5113323;28;20214;-65
2023/07/23 07:11:14;;;;;;;1.52;0.90;;;;;;;35.02;40.69;99387.47;5111431;28;20211;-67
2023/07/23 07:13:41;;;;;;;0.63;0.63;;;;;;;35.17;40.85;99393.44;5111800;28;20631;-69
2023/07/23 07:16:10;;;;;;;1.48;0.60;;;;;;;35.22;40.06;99387.50;5112723;28;20194;-68
2023/07/23 07:18:37;;;;;;;1.00;0.95;;;;;;;35.20;41.02;99373.53;5113033;28;20199;-67
2023/07/23 07:21:03;;;;;;;10.70;0.93;;;;;;;35.41;40.78;99388.53;5112189;28;20206;-68
2023/07/23 07:23:32;;;;;;;0.88;0.88;;;;;;;35.62;40.96;99385.66;5112363;28;20206;-67
2023/07/23 07:26:00;;;;;;;0.70;0.65;;;;;;;35.61;38.73;99394.66;5112995;28;20674;-68
2023/07/23 07:28:28;;;;;;;1.15;1.15;;;;;;;35.71;39.01;99395.88;5112178;28;20322;-66
2023/07/23 07:30:59;;;;;;;1.33;1.02;;;;;;;35.70;39.47;99401.44;5110502;28;20339;-69
2023/07/23 07:33:27;;;;;;;0.77;0.77;;;;;;;35.85;38.33;99401.19;5112322;28;20303;-68
2023/07/23 07:35:55;;;;;;;0.85;0.85;;;;;;;35.97;39.08;99405.69;5112389;28;20199;-71
2023/07/23 07:38:23;;;;;;;1.15;0.60;;;;;;;36.02;40.91;99389.88;5108473;28;20214;-70
2023/07/23 07:40:51;;;;;;;7.53;0.80;;;;;;;36.09;36.30;99389.91;5111929;28;20658;-66
2023/07/23 07:43:18;;;;;;;5.78;0.85;;;;;;;36.17;36.21;99406.47;5112960;28;20711;-66
2023/07/23 07:45:48;;;;;;;1.00;0.90;;;;;;;36.33;35.77;99390.00;5112522;28;20207;-74
2023/07/23 07:48:20;;;;;;;0.98;0.73;;;;;;;36.37;36.43;99392.25;5112484;28;20286;-73
2023/07/23 07:50:48;;;;;;;6.00;0.80;;;;;;;36.42;35.96;99393.22;5112253;28;20198;-70
2023/07/23 07:53:15;;;;;;;2.17;0.80;;;;;;;36.38;34.73;99391.22;5112169;28;20226;-67
2023/07/23 07:55:42;;;;;;;0.68;0.60;;;;;;;36.33;35.24;99392.66;5111827;28;20629;-66
2023/07/23 07:58:13;;;;;;;4.47;0.80;;;;;;;36.39;35.12;99387.50;5112063;28;20629;-66
2023/07/23 08:00:41;;;;;;;1.55;0.82;;;;;;;36.45;34.56;99394.69;5111311;28;20202;-66
2023/07/23 08:03:08;;;;;;;0.90;0.85;;;;;;;36.42;33.98;99387.06;5111750;28;20625;-65
2023/07/23 08:05:36;;;;;;;0.85;0.85;;;;;;;36.52;33.22;99403.44;5111060;28;20206;-67
2023/07/23 08:08:05;;;;;;;0.65;0.63;;;;;;;36.64;34.00;99393.78;5111764;28;20202;-67
2023/07/23 08:10:34;;;;;;;0.98;0.93;;;;;;;36.73;32.33;99404.00;5112098;28;20198;-67
2023/07/23 08:13:01;;;;;;;0.82;0.82;;;;;;;36.66;32.83;99408.56;5111856;28;20229;-66
2023/07/23 08:15:32;;;;;;;1.60;0.77;;;;;;;36.77;31.21;99409.75;5111967;28;20233;-65
2023/07/23 08:17:59;;;;;;;1.30;0.98;;;;;;;36.67;30.81;99398.69;5111734;28;20289;-66
2023/07/23 08:20:28;;;;;;;1.58;0.60;;;;;;;36.61;30.81;99407.56;5112366;28;20722;-66
2023/07/23 08:22:56;;;;;;;1.02;0.90;;;;;;;36.55;29.98;99401.22;5112003;28;20198;-65
2023/07/23 08:25:23;;;;;;;1.23;0.93;;;;;;;36.45;30.74;99389.34;5111583;28;20190;-64
2023/07/23 08:27:58;;;;;;;1.23;0.90;;;;;;;36.59;31.48;99404.28;5109365;28;20771;-63
2023/07/23 08:30:26;;;;;;;0.60;0.60;;;;;;;36.74;30.10;99410.16;5109725;28;20217;-65
2023/07/23 08:32:55;;;;;;;1.38;0.90;;;;;;;36.76;28.56;99397.41;5107889;28;20985;-68
2023/07/23 08:35:22;;;;;;;1.03;0.93;;;;;;;36.93;29.57;99409.22;5105657;28;20443;-66
2023/07/23 08:37:50;;;;;;;1.20;0.93;;;;;;;36.99;28.36;99405.69;5108003;28;20731;-67
2023/07/23 08:40:18;;;;;;;1.50;0.85;;;;;;;37.06;30.04;99406.47;5111156;28;20202;-67
2023/07/23 08:43:36;;;;;;;0.60;0.60;;;;;;;37.06;27.73;99405.69;5109489;28;20199;-67
2023/07/23 08:46:21;;;;;;;0.75;0.70;;;;;;;37.06;27.88;99409.16;5084833;28;20628;-67
2023/07/23 08:49:06;;;;;;;4.65;0.50;;;;;;;37.15;28.15;99401.69;5110158;28;20206;-67
2023/07/23 08:51:35;;;;;;;6.32;0.80;;;;;;;37.07;28.86;99405.44;5109922;28;20204;-67
2023/07/23 08:54:03;;;;;;;0.90;0.85;;;;;;;37.09;30.69;99400.72;5110272;28;20313;-68
2023/07/23 08:56:30;;;;;;;3.90;0.80;;;;;;;37.01;29.44;99410.84;5110374;28;20726;-65
2023/07/23 08:59:01;;;;;;;1.13;1.13;;;;;;;37.07;28.30;99392.09;5110534;28;20583;-67
2023/07/23 09:01:32;;;;;;;0.98;0.80;;;;;;;37.13;28.47;99399.22;5110169;28;20203;-67
2023/07/23 09:03:59;;;;;;;0.77;0.77;;;;;;;37.18;29.54;99396.75;5110247;28;20195;-66
2023/07/23 09:06:29;;;;;;;0.80;0.80;;;;;;;36.98;28.22;99398.69;5109944;28;20578;-64
2023/07/23 09:09:01;;;;;;;0.93;0.60;;;;;;;36.81;28.11;99389.56;5111223;28;20672;-67
2023/07/23 09:11:29;;;;;;;0.80;0.70;;;;;;;36.89;28.43;99401.84;5110245;28;20207;-67
2023/07/23 09:13:58;;;;;;;1.15;1.05;;;;;;;36.99;29.22;99392.34;5111156;28;20219;-67
2023/07/23 09:16:25;;;;;;;0.80;0.80;;;;;;;37.00;28.73;99391.31;5111015;28;20217;-66
2023/07/23 09:18:52;;;;;;;1.60;0.90;;;;;;;37.15;28.93;99391.84;5111412;28;20225;-67
2023/07/23 09:21:23;;;;;;;1.15;0.95;;;;;;;37.14;27.71;99389.34;5108124;28;20191;-67
2023/07/23 09:23:52;;;;;;;1.55;0.85;;;;;;;37.17;26.32;99400.44;5107701;28;20252;-67
2023/07/23 09:26:21;;;;;;;1.40;0.70;;;;;;;37.00;26.53;99393.97;5110378;28;20203;-68
2023/07/23 09:28:48;;;;;;;1.00;1.00;;;;;;;36.90;25.74;99393.59;5111139;28;20233;-68
2023/07/23 09:31:26;;;;;;;2.58;0.90;;;;;;;36.92;26.79;99386.22;5110404;28;20199;-67
2023/07/23 09:33:57;;;;;;;1.10;0.77;;;;;;;37.07;26.95;99378.72;5110875;28;20624;-66
2023/07/23 09:36:25;;;;;;;1.02;0.93;;;;;;;37.29;27.26;99381.81;5110839;28;20217;-67
2023/07/23 09:38:58;;;;;;;1.13;0.68;;;;;;;37.47;27.43;99383.78;5110638;28;20210;-66
2023/07/23 09:41:29;;;;;;;0.75;0.75;;;;;;;37.49;27.35;99376.34;5108966;28;20234;-72
2023/07/23 09:44:00;;;;;;;0.90;0.70;;;;;;;37.65;26.59;99381.94;5110217;28;20294;-68
2023/07/23 09:46:27;;;;;;;0.85;0.85;;;;;;;37.40;25.39;99377.63;5110696;28;20207;-66
2023/07/23 09:48:54;;;;;;;2.08;0.82;;;;;;;37.31;26.24;99375.25;5109940;28;20199;-67
2023/07/23 09:51:21;;;;;;;0.70;0.70;;;;;;;37.30;25.55;99388.81;5110234;28;20195;-65
2023/07/23 09:53:48;;;;;;;2.45;0.93;;;;;;;37.26;26.14;99391.09;5109308;28;20244;-66
2023/07/23 09:56:17;;;;;;;2.13;0.70;;;;;;;37.26;26.11;99377.75;5108697;28;20211;-66
2023/07/23 09:58:47;;;;;;;0.70;0.65;;;;;;;37.20;26.83;99361.75;5110292;28;20201;-68
2023/07/23 10:01:15;;;;;;;1.23;1.13;;;;;;;37.34;25.56;99369.44;5108656;28;20259;-69
2023/07/23 10:03:42;;;;;;;3.58;1.13;;;;;;;37.08;24.69;99353.63;5109437;28;20195;-67
2023/07/23 10:06:11;;;;;;;2.63;0.70;;;;;;;36.98;25.60;99366.63;5110349;28;20198;-67
2023/07/23 10:08:42;;;;;;;1.17;0.68;;;;;;;37.06;25.39;99371.72;5110867;28;20206;-66
2023/07/23 10:11:08;;;;;;;1.23;1.13;;;;;;;36.88;25.28;99362.78;5110488;28;20721;-66
2023/07/23 10:13:37;;;;;;;1.23;1.13;;;;;;;36.90;25.10;99366.09;5114243;28;20218;-66
2023/07/23 10:16:08;;;;;;;1.20;0.93;;;;;;;36.96;25.00;99365.22;5113951;28;20214;-68
2023/07/23 10:18:38;;;;;;;1.40;1.30;;;;;;;36.90;24.76;99360.75;5114224;28;20198;-72
2023/07/23 10:21:06;;;;;;;1.30;0.90;;;;;;;36.92;25.36;99364.81;5113629;28;20267;-68
2023/07/23 10:23:33;;;;;;;1.88;1.10;;;;;;;37.00;25.38;99367.25;5114458;28;20624;-69
2023/07/23 10:26:22;;;;;;;0.85;0.80;;;;;;;37.03;24.41;99368.69;5114174;28;20620;-67
2023/07/23 10:28:51;;;;;;;0.77;0.60;;;;;;;36.96;23.93;99347.31;5113366;28;20226;-65
2023/07/23 10:31:20;;;;;;;2.33;1.00;;;;;;;37.05;23.28;99354.06;5111068;28;21315;-67
2023/07/23 10:33:49;;;;;;;2.97;0.77;;;;;;;37.18;23.77;99353.97;5112727;28;20249;-66
2023/07/23 10:36:16;;;;;;;0.95;0.88;;;;;;;37.15;24.61;99359.75;5113410;28;20237;-67
2023/07/23 10:38:42;;;;;;;1.80;1.23;;;;;;;37.30;24.30;99357.56;5113999;28;20217;-67
2023/07/23 10:41:09;;;;;;;2.83;1.13;;;;;;;37.31;23.69;99358.38;5113971;28;20655;-67
2023/07/23 10:43:44;;;;;;;3.67;1.40;;;;;;;37.44;24.71;99360.09;5113750;28;20194;-67
2023/07/23 10:46:14;;;;;;;2.25;0.90;;;;;;;37.49;24.12;99346.91;5111203;28;20198;-67
2023/07/23 10:48:47;;;;;;;1.48;0.70;;;;;;;37.52;24.55;99344.59;5113477;28;20202;-67
2023/07/23 10:51:15;;;;;;;4.28;1.40;;;;;;;37.70;23.01;99343.81;5112135;28;20191;-67
2023/07/23 10:53:52;;;;;;;1.50;1.15;;;;;;;37.67;24.08;99353.13;5113535;28;20224;-67
2023/07/23 10:56:28;;;;;;;7.32;1.30;;;;;;;37.58;23.96;99348.28;5112837;28;20213;-67
2023/07/23 10:59:02;;;;;;;1.40;1.25;;;;;;;37.49;22.81;99349.59;5111118;28;20198;-67
2023/07/23 11:01:35;;;;;;;3.08;1.40;;;;;;;37.42;23.66;99343.47;5111495;28;20206;-67
2023/07/23 11:04:09;;;;;;;1.70;0.98;;;;;;;37.41;23.25;99355.19;5110521;28;20721;-67
2023/07/23 11:06:36;;;;;;;2.17;1.05;;;;;;;37.52;24.42;99343.78;5109172;28;20206;-65
2023/07/23 11:09:05;;;;;;;2.53;1.02;;;;;;;37.53;23.07;99346.25;5109553;28;20213;-66
2023/07/23 11:11:37;;;;;;;1.42;0.85;;;;;;;37.62;23.15;99341.41;5111749;28;20194;-67
2023/07/23 11:14:05;;;;;;;1.60;0.93;;;;;;;37.78;23.79;99348.88;5112182;28;20249;-67
2023/07/23 11:16:36;;;;;;;0.85;0.82;;;;;;;37.76;23.86;99340.25;5112233;28;20290;-67
2023/07/23 11:19:07;;;;;;;4.82;0.95;;;;;;;37.67;22.87;99330.88;5110439;28;20237;-67
2023/07/23 11:21:34;;;;;;;1.70;0.95;;;;;;;37.61;23.09;99337.94;5112254;28;20213;-67
2023/07/23 11:24:02;;;;;;;1.85;1.00;;;;;;;37.66;22.39;99331.91;5110852;28;20195;-65
2023/07/23 11:26:28;;;;;;;1.52;0.82;;;;;;;37.61;23.20;99331.78;5112048;28;20211;-66
2023/07/23 11:28:56;;;;;;;2.25;1.00;;;;;;;37.67;22.54;99325.53;5110679;28;20231;-67
2023/07/23 11:31:24;;;;;;;2.00;1.15;;;;;;;37.75;22.52;99343.97;5111869;28;20198;-67
2023/07/23 11:33:52;;;;;;;1.35;1.10;;;;;;;37.79;22.30;99326.44;5110811;28;20254;-67
2023/07/23 11:36:19;;;;;;;2.67;0.90;;;;;;;37.86;23.22;99324.50;5111447;28;20206;-64
2023/07/23 11:38:46;;;;;;;2.47;0.90;;;;;;;37.96;25.05;99324.00;5109942;28;20207;-67